Time;durP1;ratioP1;P1;durP2;ratioP2;P2;SDS_P1;SDS_P2;PMS_P1;PMS_P2;Temp;Humidity;BMP_temperature;BMP_pressure;BME280_temperature;BME280_humidity;BME280_pressure;Samples;Min_cycle;Max_cycle;Signal;HPM_P1;HPM_P2
2023/04/13 04:01:06;;;;;;;2.22;2.13;;;4.40;99.90;;;;;;5574478;23;20483;-71
2023/04/13 04:03:33;;;;;;;19.02;3.13;;;4.40;99.90;;;;;;4912731;29;20612;-70
2023/04/13 04:06:00;;;;;;;4.00;3.60;;;4.40;99.90;;;;;;4910707;29;20210;-71
2023/04/13 04:08:27;;;;;;;4.35;3.42;;;4.40;99.90;;;;;;4920017;29;20213;-71
2023/04/13 04:10:54;;;;;;;6.78;2.88;;;4.40;99.90;;;;;;4926999;29;20237;-70
2023/04/13 04:13:22;;;;;;;2.50;2.40;;;4.40;99.90;;;;;;4919982;29;20245;-71
2023/04/13 04:15:49;;;;;;;3.22;2.97;;;4.40;99.90;;;;;;4926767;29;20278;-69
2023/04/13 04:18:17;;;;;;;4.72;4.38;;;4.40;99.90;;;;;;4925857;29;20206;-70
2023/04/13 04:20:44;;;;;;;8.25;4.70;;;4.40;99.90;;;;;;4918684;29;20249;-70
2023/04/13 04:23:12;;;;;;;5.30;2.72;;;4.40;99.90;;;;;;4911354;29;20682;-70
2023/04/13 04:25:39;;;;;;;1.95;0.93;;;4.40;99.90;;;;;;4911868;29;20239;-70
2023/04/13 04:28:06;;;;;;;1.10;1.00;;;4.40;99.90;;;;;;4910988;29;20210;-69
2023/04/13 04:30:33;;;;;;;0.90;0.90;;;4.40;99.90;;;;;;4914204;29;20234;-70
2023/04/13 04:33:01;;;;;;;5.00;1.60;;;4.40;99.90;;;;;;4913133;29;20207;-70
2023/04/13 04:35:32;;;;;;;4.55;4.30;;;4.40;99.90;;;;;;4922180;29;20222;-70
2023/04/13 04:38:02;;;;;;;2.97;2.78;;;4.40;99.90;;;;;;4904304;29;20672;-70
2023/04/13 04:40:29;;;;;;;2.90;2.03;;;4.30;99.90;;;;;;4922274;29;20293;-70
2023/04/13 04:42:56;;;;;;;1.08;1.08;;;4.30;99.90;;;;;;4918746;29;20294;-69
2023/04/13 04:45:26;;;;;;;4.18;1.58;;;4.40;99.90;;;;;;4914836;29;20297;-69
2023/04/13 04:47:56;;;;;;;4.05;3.75;;;4.40;99.90;;;;;;4925708;29;20215;-69
2023/04/13 04:50:24;;;;;;;1.73;1.70;;;4.40;99.90;;;;;;4919694;29;20221;-69
2023/04/13 04:52:52;;;;;;;10.80;4.93;;;4.40;99.90;;;;;;4916761;29;20314;-70
2023/04/13 04:55:19;;;;;;;3.97;3.78;;;4.40;99.90;;;;;;4918715;29;20696;-70
2023/04/13 04:57:46;;;;;;;7.80;2.10;;;4.40;99.90;;;;;;4910773;29;20226;-70
2023/04/13 05:00:15;;;;;;;3.38;1.88;;;4.40;99.90;;;;;;4912429;29;20211;-70
2023/04/13 05:02:42;;;;;;;1.02;1.02;;;4.50;99.90;;;;;;4914363;29;20585;-70
2023/04/13 05:05:10;;;;;;;11.35;2.55;;;4.60;99.90;;;;;;4918543;29;20202;-69
2023/04/13 05:07:37;;;;;;;1.50;1.50;;;4.60;99.90;;;;;;4924347;29;20210;-69
2023/04/13 05:10:07;;;;;;;2.30;2.20;;;4.80;99.90;;;;;;4905427;29;20214;-69
2023/04/13 05:12:34;;;;;;;6.10;3.45;;;4.90;99.90;;;;;;4921655;29;20692;-69
2023/04/13 05:15:01;;;;;;;3.15;2.53;;;5.10;99.90;;;;;;4913908;29;20197;-69
2023/04/13 05:17:28;;;;;;;1.92;1.80;;;5.20;99.90;;;;;;4925059;29;20221;-69
2023/04/13 05:19:54;;;;;;;3.45;3.17;;;5.30;99.90;;;;;;4918810;29;20218;-68
2023/04/13 05:22:21;;;;;;;2.67;1.98;;;5.30;99.90;;;;;;4918666;29;20257;-69
2023/04/13 05:24:48;;;;;;;3.15;2.95;;;5.40;99.90;;;;;;4911348;29;20731;-69
2023/04/13 05:27:17;;;;;;;1.85;1.38;;;5.50;99.90;;;;;;4910527;29;20595;-69
2023/04/13 05:29:43;;;;;;;1.42;1.42;;;5.50;99.90;;;;;;4916499;29;20211;-68
2023/04/13 05:32:10;;;;;;;2.85;2.65;;;5.50;99.90;;;;;;4924258;29;20694;-68
2023/04/13 05:34:37;;;;;;;4.43;1.20;;;5.60;99.90;;;;;;4910481;29;20215;-69
2023/04/13 05:37:04;;;;;;;1.25;1.25;;;5.60;99.90;;;;;;4917929;29;20207;-69
2023/04/13 05:39:31;;;;;;;2.30;1.23;;;5.70;99.90;;;;;;4921250;29;20203;-69
2023/04/13 05:41:58;;;;;;;2.83;2.67;;;5.80;99.90;;;;;;4919640;29;20229;-69
2023/04/13 05:44:26;;;;;;;4.53;2.08;;;6.00;99.90;;;;;;4912079;29;20219;-68
2023/04/13 05:46:53;;;;;;;6.50;2.15;;;6.20;99.90;;;;;;4910800;29;20210;-68
2023/04/13 05:49:19;;;;;;;2.28;1.30;;;6.40;99.90;;;;;;4922487;29;20281;-69
2023/04/13 05:51:47;;;;;;;3.15;2.00;;;6.60;99.90;;;;;;4918409;29;20735;-69
2023/04/13 05:54:13;;;;;;;2.92;2.15;;;6.90;99.90;;;;;;4918195;29;20301;-69
2023/04/13 05:56:40;;;;;;;2.05;1.83;;;7.10;99.90;;;;;;4920440;29;20222;-69
2023/04/13 05:59:07;;;;;;;2.08;1.25;;;7.30;99.90;;;;;;4909857;29;20207;-69
2023/04/13 06:01:36;;;;;;;1.73;1.63;;;7.30;99.90;;;;;;4916104;29;20248;-69
2023/04/13 06:04:04;;;;;;;2.38;2.20;;;7.20;99.90;;;;;;4915102;29;20221;-69
2023/04/13 06:06:31;;;;;;;0.73;0.73;;;7.10;99.90;;;;;;4913837;29;20215;-68
2023/04/13 06:08:58;;;;;;;1.02;1.02;;;7.20;99.90;;;;;;4924751;29;20206;-69
2023/04/13 06:11:25;;;;;;;5.60;4.28;;;7.30;99.90;;;;;;4915658;29;20238;-69
2023/04/13 06:13:51;;;;;;;3.40;3.28;;;7.50;99.90;;;;;;4905870;29;20665;-69
2023/04/13 06:16:18;;;;;;;1.98;1.88;;;7.60;99.90;;;;;;4910551;29;20207;-68
2023/04/13 06:18:46;;;;;;;1.80;1.70;;;7.70;99.90;;;;;;4915409;29;20222;-69
2023/04/13 06:21:13;;;;;;;3.13;2.83;;;7.70;99.90;;;;;;4922317;29;20241;-69
2023/04/13 06:23:40;;;;;;;2.22;1.20;;;7.70;99.90;;;;;;4923623;29;20226;-68
2023/04/13 06:26:07;;;;;;;1.75;1.75;;;7.70;99.90;;;;;;4913107;29;20218;-68
2023/04/13 06:28:34;;;;;;;0.88;0.88;;;7.70;99.90;;;;;;4918742;29;20221;-68
2023/04/13 06:31:01;;;;;;;0.90;0.90;;;7.70;99.90;;;;;;4908383;29;20226;-67
2023/04/13 06:33:28;;;;;;;1.92;1.92;;;7.70;99.90;;;;;;4911395;29;20289;-68
2023/04/13 06:35:56;;;;;;;5.97;1.10;;;7.80;99.90;;;;;;4911475;29;20213;-68
2023/04/13 06:38:23;;;;;;;1.80;1.70;;;8.00;99.90;;;;;;4905513;29;20206;-68
2023/04/13 06:40:49;;;;;;;4.72;1.27;;;8.10;99.90;;;;;;4914170;29;20234;-68
2023/04/13 06:43:16;;;;;;;0.70;0.70;;;8.10;99.90;;;;;;4911840;29;20206;-68
2023/04/13 06:45:43;;;;;;;0.20;0.20;;;8.20;99.90;;;;;;4907173;29;20207;-68
2023/04/13 06:48:10;;;;;;;1.48;1.10;;;8.20;99.90;;;;;;4921124;29;20207;-68
2023/04/13 06:50:37;;;;;;;0.22;0.22;;;8.30;99.90;;;;;;4913983;29;20581;-68
2023/04/13 06:53:05;;;;;;;1.15;1.15;;;8.30;99.90;;;;;;4908682;29;20306;-68
2023/04/13 06:55:32;;;;;;;2.95;0.77;;;8.30;99.90;;;;;;4909902;29;20208;-69
2023/04/13 06:57:59;;;;;;;3.17;1.42;;;8.40;99.90;;;;;;4911342;29;20250;-68
2023/04/13 07:00:26;;;;;;;0.47;0.47;;;8.70;99.90;;;;;;4903952;29;20207;-68
2023/04/13 07:02:52;;;;;;;0.95;0.95;;;8.80;99.90;;;;;;4919338;29;20297;-69
2023/04/13 07:05:19;;;;;;;0.40;0.40;;;9.00;99.90;;;;;;4924178;29;20230;-68
2023/04/13 07:07:46;;;;;;;0.85;0.85;;;9.10;99.90;;;;;;4915572;29;20222;-68
2023/04/13 07:10:14;;;;;;;1.02;1.02;;;9.20;99.90;;;;;;4911391;29;20205;-69
2023/04/13 07:12:41;;;;;;;0.60;0.55;;;9.40;99.90;;;;;;4911929;29;20685;-68
2023/04/13 07:15:09;;;;;;;0.98;0.98;;;9.60;99.90;;;;;;4919074;29;20628;-69
2023/04/13 07:17:36;;;;;;;2.22;2.03;;;9.80;99.90;;;;;;4925955;29;20463;-68
2023/04/13 07:20:04;;;;;;;15.35;1.27;;;9.90;99.90;;;;;;4914370;29;20594;-69
2023/04/13 07:22:32;;;;;;;0.55;0.55;;;9.90;99.90;;;;;;4909831;29;20240;-69
2023/04/13 07:24:59;;;;;;;0.93;0.93;;;9.90;99.90;;;;;;4916117;29;20570;-69
2023/04/13 07:27:27;;;;;;;0.40;0.40;;;10.00;99.90;;;;;;4916688;29;20206;-69
2023/04/13 07:29:55;;;;;;;0.43;0.43;;;10.10;99.90;;;;;;4916113;29;20214;-69
2023/04/13 07:32:22;;;;;;;0.52;0.52;;;10.00;99.90;;;;;;4928499;29;20222;-69
2023/04/13 07:34:49;;;;;;;0.47;0.47;;;10.00;99.90;;;;;;4926423;29;20217;-69
2023/04/13 07:37:15;;;;;;;2.05;1.95;;;9.90;99.90;;;;;;4913342;29;20258;-69
2023/04/13 07:39:43;;;;;;;1.88;1.65;;;9.70;99.90;;;;;;4926033;29;20575;-69
2023/04/13 07:42:09;;;;;;;0.60;0.60;;;9.60;99.90;;;;;;4922670;29;20653;-69
2023/04/13 07:44:37;;;;;;;1.27;1.17;;;9.60;99.90;;;;;;4918278;29;20233;-69
2023/04/13 07:47:04;;;;;;;1.85;1.13;;;9.60;99.90;;;;;;4902174;29;20619;-69
2023/04/13 07:49:31;;;;;;;4.10;3.80;;;9.60;99.90;;;;;;4921452;29;20660;-68
2023/04/13 07:51:58;;;;;;;0.63;0.63;;;9.70;99.90;;;;;;4917044;29;20226;-68
2023/04/13 07:54:25;;;;;;;0.98;0.98;;;9.90;99.90;;;;;;4922236;29;20202;-68
2023/04/13 07:56:51;;;;;;;1.48;1.08;;;10.00;99.90;;;;;;4919555;29;20222;-68
2023/04/13 07:59:18;;;;;;;3.95;3.55;;;10.10;99.90;;;;;;4916315;29;20247;-68
2023/04/13 08:01:46;;;;;;;2.85;2.75;;;10.30;99.90;;;;;;4916993;29;20249;-69
2023/04/13 08:04:13;;;;;;;0.60;0.60;;;10.30;99.90;;;;;;4916334;29;20341;-68
2023/04/13 08:06:40;;;;;;;0.90;0.90;;;10.20;99.90;;;;;;4911980;29;20210;-68
2023/04/13 08:09:07;;;;;;;0.57;0.50;;;10.20;99.90;;;;;;4924551;29;20242;-68
2023/04/13 08:11:33;;;;;;;0.75;0.75;;;10.20;99.90;;;;;;4923586;29;20230;-68
2023/04/13 08:14:00;;;;;;;3.53;1.00;;;10.30;99.90;;;;;;4908667;29;20214;-69
2023/04/13 08:16:32;;;;;;;2.10;1.25;;;10.40;99.90;;;;;;4904144;29;20230;-69
2023/04/13 08:19:01;;;;;;;1.05;1.05;;;10.50;99.90;;;;;;4903855;29;20202;-67
2023/04/13 08:21:28;;;;;;;1.40;1.15;;;10.60;99.90;;;;;;4920570;29;20234;-67
2023/04/13 08:23:55;;;;;;;0.60;0.60;;;10.70;99.90;;;;;;4906906;29;20314;-67
2023/04/13 08:26:23;;;;;;;0.60;0.60;;;10.80;99.90;;;;;;4913815;29;20221;-67
2023/04/13 08:28:51;;;;;;;0.40;0.40;;;10.80;99.90;;;;;;4927096;29;20239;-66
2023/04/13 08:31:19;;;;;;;0.40;0.40;;;10.90;99.90;;;;;;4914346;29;20229;-69
2023/04/13 08:33:45;;;;;;;0.68;0.68;;;10.90;99.90;;;;;;4911934;29;20215;-68
2023/04/13 08:36:13;;;;;;;0.50;0.50;;;10.90;99.90;;;;;;4906989;29;20218;-67
2023/04/13 08:38:40;;;;;;;0.35;0.35;;;10.80;99.90;;;;;;4916053;29;20627;-68
2023/04/13 08:41:09;;;;;;;0.95;0.73;;;10.90;99.90;;;;;;4914654;29;20238;-68
2023/04/13 08:43:36;;;;;;;0.32;0.32;;;10.90;99.90;;;;;;4912145;29;20226;-68
2023/04/13 08:46:03;;;;;;;0.25;0.25;;;11.00;99.90;;;;;;4911253;29;20254;-68
2023/04/13 08:48:31;;;;;;;0.60;0.47;;;11.00;99.90;;;;;;4922512;29;20273;-68
2023/04/13 08:51:00;;;;;;;1.58;1.48;;;11.10;99.90;;;;;;4914187;29;20250;-67
2023/04/13 08:53:28;;;;;;;2.20;1.23;;;11.20;99.90;;;;;;4914989;29;20222;-68
2023/04/13 08:55:57;;;;;;;1.03;1.03;;;11.20;99.90;;;;;;4913747;29;20813;-69
2023/04/13 08:58:26;;;;;;;1.83;1.13;;;11.40;99.90;;;;;;4915951;29;20466;-68
2023/04/13 09:00:53;;;;;;;2.13;0.70;;;11.40;99.90;;;;;;4920708;29;20498;-69
2023/04/13 09:03:23;;;;;;;1.53;1.43;;;11.40;99.90;;;;;;4929141;29;20823;-68
2023/04/13 09:05:57;;;;;;;0.97;0.90;;;11.40;99.90;;;;;;4918971;29;20493;-68
2023/04/13 09:08:24;;;;;;;0.63;0.63;;;11.50;99.90;;;;;;4929801;29;20473;-69
2023/04/13 09:10:55;;;;;;;0.88;0.88;;;11.40;99.90;;;;;;4902215;29;20231;-68
2023/04/13 09:13:22;;;;;;;0.60;0.60;;;11.60;99.90;;;;;;4896735;29;20290;-69
2023/04/13 09:15:49;;;;;;;0.32;0.32;;;11.50;99.90;;;;;;4912793;29;21104;-68
2023/04/13 09:18:16;;;;;;;1.20;1.20;;;11.50;99.90;;;;;;4920501;29;20238;-67
2023/04/13 09:20:42;;;;;;;0.98;0.88;;;11.50;99.90;;;;;;4922662;29;20229;-67
2023/04/13 09:23:14;;;;;;;0.60;0.60;;;11.40;99.90;;;;;;4918409;29;20605;-68
2023/04/13 09:25:41;;;;;;;0.87;0.87;;;11.40;99.90;;;;;;4920051;29;20652;-68
2023/04/13 09:28:16;;;;;;;0.43;0.40;;;11.40;99.90;;;;;;4909517;29;20471;-69
2023/04/13 09:30:42;;;;;;;1.10;1.10;;;11.60;99.90;;;;;;4930742;29;20320;-68
2023/04/13 09:33:10;;;;;;;1.00;1.00;;;11.70;99.90;;;;;;4913091;29;20232;-68
2023/04/13 09:35:38;;;;;;;1.05;1.05;;;11.80;99.90;;;;;;4911002;29;20214;-68
2023/04/13 09:38:06;;;;;;;1.23;1.23;;;11.90;99.90;;;;;;4913745;29;20217;-68
2023/04/13 09:40:36;;;;;;;1.70;1.37;;;12.00;99.90;;;;;;4915209;29;20230;-68
2023/04/13 09:43:06;;;;;;;0.93;0.93;;;12.10;99.90;;;;;;4914661;29;20459;-68
2023/04/13 09:45:35;;;;;;;1.17;0.57;;;12.30;99.90;;;;;;4915334;29;20909;-67
2023/04/13 09:48:02;;;;;;;1.40;1.40;;;12.30;99.90;;;;;;4909597;29;20489;-67
2023/04/13 09:50:31;;;;;;;1.40;0.40;;;12.30;99.90;;;;;;4914455;29;20904;-68
2023/04/13 09:53:01;;;;;;;0.60;0.60;;;12.30;99.90;;;;;;4922791;29;20548;-69
2023/04/13 09:55:29;;;;;;;0.60;0.60;;;12.30;99.90;;;;;;4912909;29;20509;-69
2023/04/13 09:57:56;;;;;;;1.00;0.90;;;12.30;99.90;;;;;;4922057;29;20206;-68
2023/04/13 10:00:24;;;;;;;0.33;0.33;;;12.10;99.90;;;;;;4916623;29;20781;-69
2023/04/13 10:02:55;;;;;;;0.70;0.40;;;12.10;99.90;;;;;;4896923;29;20463;-68
2023/04/13 10:05:25;;;;;;;0.47;0.47;;;11.90;99.90;;;;;;4919384;29;20490;-68
2023/04/13 10:07:53;;;;;;;0.77;0.77;;;11.90;99.90;;;;;;4914719;29;20273;-70
2023/04/13 10:10:21;;;;;;;0.30;0.30;;;11.90;99.90;;;;;;4922745;29;20989;-70
2023/04/13 10:12:51;;;;;;;0.67;0.67;;;12.00;99.90;;;;;;4913724;29;20664;-69
2023/04/13 10:15:31;;;;;;;0.20;0.20;;;12.10;99.90;;;;;;4895757;29;20813;-69
2023/04/13 10:18:09;;;;;;;0.30;0.30;;;12.00;99.90;;;;;;4902396;29;20462;-69
2023/04/13 10:20:36;;;;;;;1.17;0.80;;;12.00;99.90;;;;;;4919358;29;20860;-68
2023/04/13 10:23:05;;;;;;;0.30;0.30;;;11.90;99.90;;;;;;4914323;29;20466;-68
2023/04/13 10:25:32;;;;;;;2.63;0.50;;;12.00;99.90;;;;;;4914337;29;20512;-69
2023/04/13 10:28:00;;;;;;;0.47;0.47;;;12.00;99.90;;;;;;4914557;29;20920;-68
2023/04/13 10:30:27;;;;;;;0.50;0.50;;;12.00;99.90;;;;;;4914192;29;20470;-68
2023/04/13 10:33:09;;;;;;;0.60;0.60;;;12.00;99.90;;;;;;4913876;29;20470;-68
2023/04/13 10:35:37;;;;;;;0.40;0.40;;;12.00;99.90;;;;;;4930217;29;20842;-68
2023/04/13 10:38:04;;;;;;;2.10;0.80;;;12.10;99.90;;;;;;4933102;29;20470;-68
2023/04/13 10:40:42;;;;;;;0.30;0.30;;;12.20;99.90;;;;;;4933156;29;20465;-68
2023/04/13 10:43:09;;;;;;;1.53;1.43;;;12.10;99.90;;;;;;4933318;29;20450;-69
2023/04/13 10:45:36;;;;;;;1.13;0.60;;;12.00;99.90;;;;;;4933261;29;20853;-67
2023/04/13 10:48:06;;;;;;;0.30;0.30;;;11.80;99.90;;;;;;4928360;29;20469;-69
2023/04/13 10:50:33;;;;;;;0.50;0.50;;;11.60;99.90;;;;;;4914090;29;20466;-68
2023/04/13 10:53:02;;;;;;;3.80;0.73;;;11.80;99.90;;;;;;4914339;29;20612;-69
2023/04/13 10:55:30;;;;;;;0.85;0.85;;;11.80;99.90;;;;;;4906493;29;20206;-67
2023/04/13 10:57:58;;;;;;;0.43;0.43;;;11.80;99.90;;;;;;4912148;29;20209;-67
2023/04/13 11:00:27;;;;;;;1.40;0.80;;;11.80;99.90;;;;;;4911040;29;20202;-68
2023/04/13 11:02:57;;;;;;;0.60;0.57;;;12.00;99.90;;;;;;4909956;29;20583;-67
2023/04/13 11:05:25;;;;;;;1.73;0.67;;;12.00;99.90;;;;;;4902265;29;20523;-67
2023/04/13 11:07:53;;;;;;;1.40;0.73;;;11.90;99.90;;;;;;4916453;29;20467;-67
2023/04/13 11:10:25;;;;;;;0.60;0.60;;;11.90;99.90;;;;;;4917937;29;20206;-68
2023/04/13 11:12:53;;;;;;;1.65;1.00;;;12.10;99.90;;;;;;4928246;29;20469;-67
2023/04/13 11:15:21;;;;;;;1.23;1.23;;;12.20;99.90;;;;;;4920107;29;20202;-67
2023/04/13 11:17:52;;;;;;;0.80;0.80;;;12.40;99.90;;;;;;4924162;29;20477;-66
2023/04/13 11:20:20;;;;;;;1.63;1.53;;;12.50;99.90;;;;;;4922162;29;20505;-67
2023/04/13 11:22:48;;;;;;;1.50;1.50;;;12.60;99.90;;;;;;4913487;29;20475;-70
2023/04/13 11:25:15;;;;;;;1.83;1.73;;;12.70;99.90;;;;;;4920407;29;20585;-69
2023/04/13 11:27:42;;;;;;;0.83;0.77;;;12.80;99.90;;;;;;4916529;29;20467;-68
2023/04/13 11:30:10;;;;;;;1.57;1.47;;;12.90;99.90;;;;;;4920332;29;20805;-67
2023/04/13 11:32:40;;;;;;;1.27;1.07;;;12.90;99.90;;;;;;4908958;29;20922;-68
2023/04/13 11:35:08;;;;;;;1.40;1.40;;;13.10;99.90;;;;;;4909112;29;20501;-73
2023/04/13 11:37:39;;;;;;;1.10;1.10;;;13.30;99.90;;;;;;4909291;29;20500;-68
2023/04/13 11:40:13;;;;;;;0.83;0.83;;;13.50;99.90;;;;;;4914552;29;20500;-68
2023/04/13 11:42:42;;;;;;;0.77;0.77;;;13.70;99.90;;;;;;4914199;29;20467;-68
2023/04/13 11:45:10;;;;;;;0.57;0.57;;;13.80;99.90;;;;;;4913604;29;20508;-68
2023/04/13 11:47:38;;;;;;;6.73;3.57;;;13.90;99.90;;;;;;4914327;29;20478;-68
2023/04/13 11:50:08;;;;;;;1.70;1.03;;;14.00;99.90;;;;;;4914716;29;20477;-68
2023/04/13 11:52:35;;;;;;;1.90;1.27;;;14.00;99.90;;;;;;4928462;29;20498;-68
2023/04/13 11:55:04;;;;;;;1.40;0.83;;;14.00;99.90;;;;;;4913726;29;20471;-68
2023/04/13 11:57:33;;;;;;;1.57;1.47;;;13.90;99.90;;;;;;4910280;29;20474;-67
2023/04/13 12:00:00;;;;;;;1.40;1.30;;;14.00;99.90;;;;;;4920231;29;20475;-68
2023/04/13 12:02:28;;;;;;;3.50;2.07;;;14.00;99.90;;;;;;4909042;29;20570;-66
2023/04/13 12:04:55;;;;;;;2.20;2.10;;;13.90;99.90;;;;;;4916822;29;20529;-66
2023/04/13 12:07:23;;;;;;;0.80;0.80;;;13.80;99.90;;;;;;4922830;29;20478;-66
2023/04/13 12:09:52;;;;;;;1.03;1.03;;;13.70;99.90;;;;;;4918384;29;20493;-66
2023/04/13 12:12:20;;;;;;;1.40;1.40;;;13.70;99.90;;;;;;4920252;29;21015;-65
2023/04/13 12:14:55;;;;;;;1.17;1.17;;;13.80;99.90;;;;;;4933328;29;20465;-65
2023/04/13 12:17:21;;;;;;;0.33;0.33;;;13.80;99.90;;;;;;4904950;29;20474;-66
2023/04/13 12:19:54;;;;;;;0.30;0.30;;;13.80;99.90;;;;;;4906462;29;20467;-66
2023/04/13 12:22:22;;;;;;;0.50;0.50;;;13.80;99.90;;;;;;4921465;29;20502;-65
2023/04/13 12:24:48;;;;;;;0.80;0.80;;;13.80;99.90;;;;;;4918061;29;20466;-68
2023/04/13 12:27:16;;;;;;;0.83;0.83;;;13.70;99.90;;;;;;4921442;29;20818;-69
2023/04/13 12:29:43;;;;;;;1.10;1.10;;;13.80;99.90;;;;;;4929628;29;20553;-68
2023/04/13 12:32:12;;;;;;;0.90;0.90;;;13.90;99.90;;;;;;4916194;29;20493;-68
2023/04/13 12:34:40;;;;;;;0.77;0.77;;;14.10;99.90;;;;;;4916689;29;20466;-68
2023/04/13 12:37:07;;;;;;;2.20;1.20;;;14.10;99.90;;;;;;4916171;29;20879;-68
2023/04/13 12:39:34;;;;;;;0.70;0.70;;;14.00;99.90;;;;;;4911355;29;20871;-68
2023/04/13 12:42:01;;;;;;;2.00;1.20;;;14.00;99.90;;;;;;4897151;29;20487;-69
2023/04/13 12:44:28;;;;;;;0.80;0.80;;;14.00;99.90;;;;;;4897118;29;20479;-69
2023/04/13 12:46:54;;;;;;;0.43;0.43;;;14.00;99.90;;;;;;4897030;29;20522;-68
2023/04/13 12:49:22;;;;;;;0.97;0.97;;;13.90;99.90;;;;;;4897066;29;20480;-68
2023/04/13 12:51:49;;;;;;;2.77;2.07;;;14.00;99.90;;;;;;4897123;29;20490;-68
2023/04/13 12:54:16;;;;;;;1.33;1.33;;;14.00;99.90;;;;;;4898592;29;20474;-68
2023/04/13 12:56:43;;;;;;;1.60;1.60;;;14.20;99.90;;;;;;4914682;29;20458;-68
2023/04/13 12:59:11;;;;;;;1.33;1.33;;;14.20;99.90;;;;;;4934762;29;20572;-68
2023/04/13 13:01:37;;;;;;;0.80;0.80;;;14.30;99.90;;;;;;4931875;29;20852;-69
2023/04/13 13:04:04;;;;;;;1.10;1.10;;;14.30;99.90;;;;;;4935004;29;20461;-68
2023/04/13 13:06:33;;;;;;;1.03;1.03;;;14.30;99.90;;;;;;4932274;29;20490;-68
2023/04/13 13:09:00;;;;;;;1.00;1.00;;;14.50;99.90;;;;;;4934478;29;20520;-68
2023/04/13 13:11:27;;;;;;;1.13;1.13;;;14.60;99.90;;;;;;4934667;29;20536;-68
2023/04/13 13:13:54;;;;;;;0.60;0.60;;;14.50;99.90;;;;;;4934554;29;20469;-68
2023/04/13 13:16:21;;;;;;;0.63;0.63;;;14.40;99.90;;;;;;4934265;29;20466;-68
2023/04/13 13:18:48;;;;;;;1.13;1.03;;;14.50;99.90;;;;;;4925015;29;20479;-69
2023/04/13 13:21:15;;;;;;;0.93;0.93;;;14.50;99.90;;;;;;4911217;29;20617;-68
2023/04/13 13:23:44;;;;;;;1.03;0.90;;;14.40;99.90;;;;;;4929470;29;20461;-68
2023/04/13 13:26:10;;;;;;;1.07;1.07;;;14.30;99.90;;;;;;4920993;29;20486;-69
2023/04/13 13:28:37;;;;;;;3.03;1.53;;;14.20;99.90;;;;;;4923617;29;20799;-69
2023/04/13 13:31:06;;;;;;;1.03;0.73;;;14.20;99.90;;;;;;4930983;29;20493;-68
2023/04/13 13:33:32;;;;;;;0.90;0.90;;;14.30;99.90;;;;;;4913406;29;20474;-67
2023/04/13 13:36:00;;;;;;;1.00;1.00;;;14.30;99.90;;;;;;4906626;29;20467;-70
2023/04/13 13:38:26;;;;;;;3.90;1.07;;;14.30;99.90;;;;;;4913371;29;20947;-70
2023/04/13 13:40:54;;;;;;;0.93;0.93;;;14.40;99.90;;;;;;4915031;29;20482;-68
2023/04/13 13:43:21;;;;;;;0.90;0.90;;;14.50;99.90;;;;;;4914550;29;20493;-69
2023/04/13 13:45:48;;;;;;;0.53;0.53;;;14.40;99.90;;;;;;4914807;29;20493;-69
2023/04/13 13:48:15;;;;;;;1.73;1.63;;;14.20;99.90;;;;;;4915072;29;20816;-69
2023/04/13 13:50:42;;;;;;;2.37;2.20;;;14.10;99.90;;;;;;4918394;29;20545;-69
2023/04/13 13:53:08;;;;;;;1.37;1.37;;;14.10;99.90;;;;;;4922158;29;21190;-68
2023/04/13 13:55:35;;;;;;;2.07;1.97;;;14.20;99.90;;;;;;4905674;29;20494;-68
2023/04/13 13:58:03;;;;;;;1.67;1.67;;;14.30;99.90;;;;;;4896276;29;20471;-68
2023/04/13 14:00:30;;;;;;;0.67;0.67;;;14.40;99.90;;;;;;4896591;29;20475;-68
2023/04/13 14:02:58;;;;;;;1.60;1.50;;;14.50;99.90;;;;;;4900170;29;20463;-69
2023/04/13 14:05:25;;;;;;;1.00;1.00;;;14.30;99.90;;;;;;4929071;29;20942;-68
2023/04/13 14:07:51;;;;;;;1.00;1.00;;;14.20;99.90;;;;;;4936889;29;20473;-69
2023/04/13 14:10:18;;;;;;;0.67;0.67;;;14.10;99.90;;;;;;4938693;29;20477;-69
2023/04/13 14:12:46;;;;;;;1.30;1.30;;;14.10;99.90;;;;;;4938117;29;20472;-70
2023/04/13 14:15:15;;;;;;;0.50;0.50;;;14.00;99.90;;;;;;4932029;29;20470;-69
2023/04/13 14:17:41;;;;;;;0.43;0.43;;;14.00;99.90;;;;;;4918205;29;20895;-69
2023/04/13 14:20:09;;;;;;;0.93;0.93;;;13.90;99.90;;;;;;4915317;29;20477;-69
2023/04/13 14:22:36;;;;;;;0.40;0.40;;;13.80;99.90;;;;;;4909071;29;20585;-70
2023/04/13 14:25:04;;;;;;;0.80;0.80;;;13.80;99.90;;;;;;4916934;29;20950;-69
2023/04/13 14:27:31;;;;;;;1.00;0.93;;;13.80;99.90;;;;;;4916024;29;20496;-69
2023/04/13 14:29:58;;;;;;;0.43;0.43;;;13.80;99.90;;;;;;4933317;29;20477;-70
2023/04/13 14:32:26;;;;;;;0.70;0.70;;;13.80;99.90;;;;;;4920555;29;20501;-68
2023/04/13 14:34:53;;;;;;;1.67;0.40;;;13.90;99.90;;;;;;4913184;29;20850;-68
2023/04/13 14:37:22;;;;;;;0.80;0.80;;;13.90;99.90;;;;;;4914460;29;20661;-69
2023/04/13 14:39:48;;;;;;;0.50;0.50;;;13.90;99.90;;;;;;4926546;29;20473;-68
2023/04/13 14:42:15;;;;;;;0.80;0.80;;;13.90;99.90;;;;;;4930614;29;20588;-68
2023/04/13 14:44:42;;;;;;;0.97;0.60;;;13.90;99.90;;;;;;4919024;29;20478;-68
2023/04/13 14:47:09;;;;;;;0.80;0.80;;;13.90;99.90;;;;;;4919590;29;20562;-69
2023/04/13 14:49:37;;;;;;;0.50;0.50;;;13.90;99.90;;;;;;4914208;29;20470;-70
2023/04/13 14:52:04;;;;;;;0.87;0.70;;;13.90;99.90;;;;;;4921458;29;20514;-70
2023/04/13 14:54:31;;;;;;;0.67;0.67;;;13.90;99.90;;;;;;4934789;29;20461;-69
2023/04/13 14:56:58;;;;;;;0.63;0.63;;;13.90;99.90;;;;;;4927629;29;20458;-68
2023/04/13 14:59:26;;;;;;;0.80;0.80;;;13.90;99.90;;;;;;4928092;29;20470;-69
2023/04/13 15:01:52;;;;;;;0.70;0.70;;;13.90;99.90;;;;;;4911286;29;20578;-69
2023/04/13 15:04:19;;;;;;;1.03;1.03;;;14.00;99.90;;;;;;4920186;29;20470;-69
2023/04/13 15:06:48;;;;;;;0.80;0.80;;;14.10;99.90;;;;;;4919851;29;20497;-69
2023/04/13 15:09:15;;;;;;;0.50;0.50;;;14.10;99.90;;;;;;4928741;29;21130;-68
2023/04/13 15:11:43;;;;;;;0.73;0.73;;;14.00;99.90;;;;;;4920621;29;20482;-69
2023/04/13 15:14:10;;;;;;;0.63;0.63;;;13.90;99.90;;;;;;4906227;29;20509;-68
2023/04/13 15:16:37;;;;;;;0.60;0.60;;;13.70;99.90;;;;;;4926340;29;20479;-69
2023/04/13 15:19:03;;;;;;;0.63;0.63;;;13.60;99.90;;;;;;4930699;29;20480;-70
2023/04/13 15:21:30;;;;;;;0.93;0.60;;;13.50;99.90;;;;;;4924615;29;20485;-68
2023/04/13 15:23:58;;;;;;;1.13;0.57;;;13.40;99.90;;;;;;4920282;29;20471;-69
2023/04/13 15:26:25;;;;;;;0.70;0.70;;;13.00;99.90;;;;;;4919072;29;20482;-70
2023/04/13 15:28:51;;;;;;;0.40;0.40;;;12.60;99.90;;;;;;4921515;29;20469;-69
2023/04/13 15:31:18;;;;;;;0.53;0.53;;;12.30;99.90;;;;;;4921868;29;20509;-69
2023/04/13 15:33:45;;;;;;;1.33;0.83;;;12.00;99.90;;;;;;4921390;29;20469;-70
2023/04/13 15:36:14;;;;;;;0.40;0.40;;;11.80;99.90;;;;;;4920534;29;20576;-70
2023/04/13 15:38:41;;;;;;;0.70;0.70;;;11.70;99.90;;;;;;4920397;29;20983;-70
2023/04/13 15:41:10;;;;;;;0.82;0.80;;;11.60;99.90;;;;;;4920136;29;20234;-71
2023/04/13 15:43:37;;;;;;;0.32;0.32;;;11.50;99.90;;;;;;4920260;29;20620;-69
2023/04/13 15:46:04;;;;;;;0.30;0.30;;;11.50;99.90;;;;;;4935720;29;20207;-68
2023/04/13 15:48:30;;;;;;;1.00;0.40;;;11.50;99.90;;;;;;4920693;29;20210;-67
2023/04/13 15:50:58;;;;;;;0.80;0.80;;;11.40;99.90;;;;;;4918192;29;20341;-68
2023/04/13 15:53:24;;;;;;;2.33;0.90;;;11.40;99.90;;;;;;4917377;29;20217;-68
2023/04/13 15:55:51;;;;;;;0.73;0.50;;;11.40;99.90;;;;;;4911922;29;20207;-68
2023/04/13 15:58:19;;;;;;;0.65;0.65;;;11.50;99.90;;;;;;4906418;29;20691;-70
2023/04/13 16:00:46;;;;;;;0.60;0.60;;;11.50;99.90;;;;;;4922320;29;20253;-70
2023/04/13 16:03:13;;;;;;;0.60;0.60;;;11.50;99.90;;;;;;4916752;29;20195;-69
2023/04/13 16:05:39;;;;;;;0.75;0.75;;;11.50;99.90;;;;;;4916722;29;20466;-69
2023/04/13 16:08:06;;;;;;;0.45;0.45;;;11.50;99.90;;;;;;4916695;29;20554;-70
2023/04/13 16:10:33;;;;;;;0.65;0.65;;;11.50;99.90;;;;;;4906724;29;20210;-68
2023/04/13 16:13:01;;;;;;;0.80;0.80;;;11.40;99.90;;;;;;4905885;29;20770;-69
2023/04/13 16:15:29;;;;;;;1.08;1.05;;;11.40;99.90;;;;;;4908493;29;20238;-69
2023/04/13 16:17:56;;;;;;;0.80;0.80;;;11.40;99.90;;;;;;4911053;29;20657;-69
2023/04/13 16:20:25;;;;;;;1.95;0.80;;;11.40;99.90;;;;;;4911914;29;20218;-68
2023/04/13 16:22:58;;;;;;;1.38;0.80;;;11.30;99.90;;;;;;4913558;29;20207;-68
2023/04/13 16:25:24;;;;;;;0.70;0.70;;;11.30;99.90;;;;;;4902904;29;20210;-68
2023/04/13 16:27:51;;;;;;;2.13;0.90;;;11.30;99.90;;;;;;4905208;29;20526;-68
2023/04/13 16:30:20;;;;;;;0.90;0.90;;;11.40;99.90;;;;;;4904276;29;20214;-69
2023/04/13 16:32:49;;;;;;;1.48;1.10;;;11.40;99.90;;;;;;4905645;29;20467;-68
2023/04/13 16:35:16;;;;;;;1.20;1.20;;;11.40;99.90;;;;;;4903566;29;20215;-68
2023/04/13 16:37:43;;;;;;;1.13;1.13;;;11.40;99.90;;;;;;4906009;29;20497;-69
2023/04/13 16:40:14;;;;;;;1.03;1.03;;;11.40;99.90;;;;;;4905597;29;20229;-69
2023/04/13 16:42:41;;;;;;;3.73;2.30;;;11.40;99.90;;;;;;4903866;29;20491;-68
2023/04/13 16:45:09;;;;;;;1.30;1.30;;;11.50;99.90;;;;;;4909287;29;20473;-68
2023/04/13 16:47:36;;;;;;;1.25;1.13;;;11.50;99.90;;;;;;4904356;29;20811;-69
2023/04/13 16:50:06;;;;;;;2.53;1.50;;;11.60;99.90;;;;;;4904432;29;20238;-69
2023/04/13 16:52:34;;;;;;;0.80;0.80;;;11.60;99.90;;;;;;4904412;29;20587;-68